Terminal Aerodrome Forecast
Issued by NWS

Home | Current Version | Previous Version | Text Only | Print | Product List | Glossary On
Versions: 1 2 3 4 5 6 7 8 9 10 11 12 13 14 15 16 17 18 19 20 21 22 23 24 25 26
000
FTUS42 KMLB 262350 RRA
TAFLEE
TAF
KLEE 262350Z 2700/2724 24005KT P6SM VCTS SCT035CB BKN070
      TEMPO 2700/2702 3SM TSRA BR BKN030CB OVC070
     FM270400 23006KT P6SM VCSH SCT025 BKN070
      TEMPO 2706/2710 -SHRA SCT020 BKN035
     FM271300 22014G20KT P6SM VCSH SCT025 OVC060=

USA.gov is the U.S. government's official web portal to all federal, state and local government web resources and services.